createdAt,value
2023-02-05T00:03:47.295Z,102439.31
2023-02-05T00:08:49.968Z,102419.88
2023-02-05T00:13:54.066Z,102411.66
2023-02-05T00:18:57.694Z,102394.06
2023-02-05T00:24:00.537Z,102369.00
2023-02-05T00:29:05.056Z,102365.34
2023-02-05T00:34:07.761Z,102359.44
2023-02-05T00:39:11.419Z,102340.63
2023-02-05T00:44:16.100Z,102326.69
2023-02-05T00:49:19.969Z,102334.09
2023-02-05T00:54:22.764Z,102327.56
2023-02-05T00:59:26.946Z,102321.19
2023-02-05T01:04:29.702Z,102307.59
2023-02-05T01:09:32.443Z,102296.28
2023-02-05T01:14:36.537Z,102291.78
2023-02-05T01:19:39.271Z,102288.16
2023-02-05T01:24:42.011Z,102279.28
2023-02-05T01:29:46.240Z,102277.34
2023-02-05T01:34:48.963Z,102261.00
2023-02-05T01:39:51.779Z,102256.41
2023-02-05T01:45:32.645Z,102251.53
2023-02-05T01:50:39.972Z,102262.47
2023-02-05T01:55:46.571Z,102281.03
2023-02-05T02:00:49.416Z,102261.22
2023-02-05T02:05:53.450Z,102257.28
2023-02-05T02:10:58.245Z,102244.44
2023-02-05T02:16:01.405Z,102229.06
2023-02-05T02:21:28.108Z,102236.25
2023-02-05T02:26:43.774Z,102221.34
2023-02-05T02:31:52.649Z,102214.91
2023-02-05T02:36:59.482Z,102220.66
2023-02-05T02:42:04.802Z,102225.56
2023-02-05T02:47:13.694Z,102228.06
2023-02-05T02:52:18.839Z,102218.91
2023-02-05T02:57:24.208Z,102217.22
2023-02-05T03:02:30.254Z,102197.66
2023-02-05T03:07:35.228Z,102181.97
2023-02-05T03:12:38.790Z,102181.06
2023-02-05T03:17:43.925Z,102174.34
2023-02-05T03:22:46.701Z,102164.59
2023-02-05T03:27:50.256Z,102165.53
2023-02-05T03:33:02.455Z,102146.97
2023-02-05T03:38:24.092Z,102148.06
2023-02-05T03:43:34.060Z,102138.59
2023-02-05T03:48:45.079Z,102144.09
2023-02-05T03:53:56.779Z,102147.31
2023-02-05T03:59:01.193Z,102146.09
2023-02-05T04:04:05.678Z,102163.53
2023-02-05T04:09:08.825Z,102164.59
2023-02-05T04:14:12.044Z,102156.19
2023-02-05T04:19:18.323Z,102160.06
2023-02-05T04:24:23.624Z,102144.75
2023-02-05T04:29:26.538Z,102139.88
2023-02-05T04:34:30.926Z,102132.38
2023-02-05T04:39:35.505Z,102132.78
2023-02-05T04:44:38.205Z,102129.63
2023-02-05T04:49:42.224Z,102128.25
2023-02-05T04:54:44.948Z,102154.69
2023-02-05T04:59:47.634Z,102159.72
2023-02-05T05:04:51.720Z,102168.53
2023-02-05T05:09:54.437Z,102158.88
2023-02-05T05:14:57.128Z,102138.59
2023-02-05T05:20:01.248Z,102143.84
2023-02-05T05:25:03.995Z,102143.38
2023-02-05T05:30:07.349Z,102129.28
2023-02-05T05:35:11.389Z,102106.06
2023-02-05T05:40:31.443Z,102103.16
2023-02-05T05:45:34.454Z,102113.59
2023-02-05T05:50:38.673Z,102114.03
2023-02-05T05:55:42.517Z,102110.69
2023-02-05T06:00:45.605Z,102117.59
2023-02-05T06:05:50.007Z,102097.22
2023-02-05T06:10:52.770Z,102082.06
2023-02-05T06:15:55.732Z,102044.75
2023-02-05T06:20:59.801Z,102037.88
2023-02-05T06:26:02.512Z,102016.91
2023-02-05T06:31:05.591Z,101990.88
2023-02-05T06:36:10.235Z,101971.31
2023-02-05T06:41:12.924Z,101963.63
2023-02-05T06:46:15.746Z,101975.88
2023-02-05T06:51:20.796Z,101966.69
2023-02-05T06:56:23.451Z,101958.41
2023-02-05T07:01:26.460Z,101937.56
2023-02-05T07:06:30.540Z,101928.06
2023-02-05T07:11:33.535Z,101907.88
2023-02-05T07:16:36.238Z,101899.00
2023-02-05T07:21:40.298Z,101893.31
2023-02-05T07:26:45.148Z,101881.34
2023-02-05T07:31:47.886Z,101876.28
2023-02-05T07:36:52.520Z,101866.78
2023-02-05T07:41:55.292Z,101843.84
2023-02-05T07:47:06.595Z,101832.47
2023-02-05T07:52:10.708Z,101818.22
2023-02-05T07:57:13.413Z,101790.59
2023-02-05T08:02:16.263Z,101774.84
2023-02-05T08:07:20.358Z,101758.06
2023-02-05T08:12:23.311Z,101732.44
2023-02-05T08:17:26.055Z,101708.22
2023-02-05T08:22:30.093Z,101705.09
2023-02-05T08:27:33.184Z,101748.19
2023-02-05T08:32:36.138Z,101740.63
2023-02-05T08:37:40.250Z,101716.59
2023-02-05T08:42:42.933Z,101715.50
2023-02-05T08:47:45.651Z,101755.09
2023-02-05T08:52:50.653Z,101730.66
2023-02-05T08:57:53.392Z,101740.59
2023-02-05T09:02:56.071Z,101747.50
2023-02-05T09:08:00.200Z,101743.38
2023-02-05T09:13:02.919Z,101702.75
2023-02-05T09:18:05.645Z,101696.47
2023-02-05T09:23:10.818Z,101678.19
2023-02-05T09:28:15.096Z,101660.56
2023-02-05T09:33:17.948Z,101630.94
2023-02-05T09:38:21.997Z,101615.69
2023-02-05T09:43:33.074Z,101600.84
2023-02-05T09:48:50.322Z,101576.28
2023-02-05T09:53:57.643Z,101571.47
2023-02-05T09:59:00.951Z,101560.88
2023-02-05T10:04:06.170Z,101560.34
2023-02-05T10:09:20.374Z,101546.25
2023-02-05T10:14:27.929Z,101519.59
2023-02-05T10:19:48.736Z,101491.59
2023-02-05T10:25:14.901Z,101488.84
2023-02-05T10:30:23.058Z,101456.81
2023-02-05T10:35:30.550Z,101458.41
2023-02-05T10:40:39.239Z,101447.13
2023-02-05T10:45:41.973Z,101456.00
2023-02-05T10:50:51.638Z,101447.13
2023-02-05T10:55:56.235Z,101449.38
2023-02-05T11:00:59.366Z,101438.25
2023-02-05T11:06:03.425Z,101449.00
2023-02-05T11:11:08.999Z,101444.78
2023-02-05T11:16:12.536Z,101452.94
2023-02-05T11:21:15.319Z,101421.38
2023-02-05T11:26:22.176Z,101423.97
2023-02-05T11:31:27.004Z,101444.75
2023-02-05T11:36:30.069Z,101428.47
2023-02-05T11:41:47.980Z,101415.38
2023-02-05T11:46:56.712Z,101405.94
2023-02-05T11:51:59.796Z,101420.56
2023-02-05T11:57:09.041Z,101421.91
2023-02-05T12:02:31.816Z,101413.13
2023-02-05T12:07:39.039Z,101421.34
2023-02-05T12:12:47.176Z,101437.38
2023-02-05T12:17:53.970Z,101434.38
2023-02-05T12:23:17.069Z,101423.72
2023-02-05T12:28:31.908Z,101445.00
2023-02-05T12:33:56.405Z,101434.00
2023-02-05T12:39:08.313Z,101436.63
2023-02-05T12:44:24.233Z,101436.72
2023-02-05T12:49:39.716Z,101415.53
2023-02-05T12:54:57.929Z,101429.56
2023-02-05T13:00:06.798Z,101434.16
2023-02-05T13:05:15.322Z,101416.22
2023-02-05T13:10:20.718Z,101423.06
2023-02-05T13:15:28.669Z,101424.81
2023-02-05T13:20:51.795Z,101418.56
2023-02-05T13:26:13.989Z,101422.34
2023-02-05T13:31:22.463Z,101430.91
2023-02-05T13:37:17.007Z,101423.38
2023-02-05T13:42:58.287Z,101443.16
2023-02-05T13:48:30.259Z,101445.59
2023-02-05T13:53:45.626Z,101460.00
2023-02-05T13:58:50.941Z,101463.47
2023-02-05T14:03:58.069Z,101474.06
2023-02-05T14:09:04.033Z,101471.59
2023-02-05T14:14:31.871Z,101465.06
2023-02-05T14:20:06.012Z,101462.31
2023-02-05T14:25:47.680Z,101470.97
2023-02-05T14:30:52.193Z,101472.53
2023-02-05T14:35:58.108Z,101480.13
2023-02-05T14:41:03.998Z,101484.28
2023-02-05T14:46:08.414Z,101483.25
2023-02-05T14:51:20.113Z,101478.97
2023-02-05T14:56:25.877Z,101480.38
2023-02-05T15:01:46.331Z,101496.22
2023-02-05T15:06:50.867Z,101478.97
2023-02-05T15:12:09.660Z,101490.56
2023-02-05T15:17:44.458Z,101498.03
2023-02-05T15:22:52.305Z,101503.50
2023-02-05T15:27:57.196Z,101512.22
2023-02-05T15:33:02.209Z,101523.22
2023-02-05T15:38:24.842Z,101515.06
2023-02-05T15:43:28.503Z,101518.50
2023-02-05T15:48:32.557Z,101539.69
2023-02-05T15:53:38.250Z,101537.34
2023-02-05T15:58:42.557Z,101544.63
2023-02-05T16:03:45.323Z,101548.81
2023-02-05T16:08:51.388Z,101568.25
2023-02-05T16:14:03.194Z,101588.38
2023-02-05T16:19:08.878Z,101595.28
2023-02-05T16:24:23.493Z,101592.81
2023-02-05T16:29:36.076Z,101606.00
2023-02-05T16:34:47.078Z,101609.28
2023-02-05T16:39:54.425Z,101600.56
2023-02-05T16:45:22.167Z,101608.75
2023-02-05T16:50:37.126Z,101619.72
2023-02-05T16:55:43.647Z,101624.84
2023-02-05T17:00:54.520Z,101650.16
2023-02-05T17:05:59.721Z,101651.06
2023-02-05T17:11:06.045Z,101658.88
2023-02-05T17:16:26.913Z,101672.06
2023-02-05T17:21:31.235Z,101666.84
2023-02-05T17:26:38.879Z,101680.94
2023-02-05T17:31:41.690Z,101677.16
2023-02-05T17:36:44.454Z,101692.19
2023-02-05T17:42:07.719Z,101707.56
2023-02-05T17:47:10.815Z,101719.94
2023-02-05T17:52:15.309Z,101708.47
2023-02-05T17:57:21.348Z,101720.34
2023-02-05T18:02:24.050Z,101718.78
2023-02-05T18:07:31.199Z,101713.38
2023-02-05T18:12:35.481Z,101703.09
2023-02-05T18:17:38.271Z,101703.34
2023-02-05T18:22:41.048Z,101702.03
2023-02-05T18:27:45.267Z,101700.19
2023-02-05T18:32:48.047Z,101697.28
2023-02-05T18:37:50.746Z,101700.44
2023-02-05T18:42:55.946Z,101628.72
2023-02-05T18:48:01.070Z,101629.50
2023-02-05T18:53:04.118Z,101614.63
2023-02-05T18:58:08.262Z,101614.84
2023-02-05T19:03:11.313Z,101611.50
2023-02-05T19:08:14.051Z,101614.50
2023-02-05T19:13:18.262Z,101619.31
2023-02-05T19:18:20.955Z,101614.50
2023-02-05T19:23:23.786Z,101585.94
2023-02-05T19:28:27.949Z,101579.13
2023-02-05T19:33:31.670Z,101592.72
2023-02-05T19:38:35.890Z,101595.81
2023-02-05T19:43:40.461Z,101604.94
2023-02-05T19:48:43.209Z,101606.38
2023-02-05T19:53:47.460Z,101619.97
2023-02-05T19:58:53.585Z,101623.47
2023-02-05T20:03:56.749Z,101631.91
2023-02-05T20:09:01.186Z,101637.00
2023-02-05T20:14:05.518Z,101636.84
2023-02-05T20:19:10.130Z,101630.75
2023-02-05T20:24:12.903Z,101634.53
2023-02-05T20:29:34.778Z,101635.44
2023-02-05T20:34:40.660Z,101634.97
2023-02-05T20:39:44.727Z,101651.81
2023-02-05T20:44:48.799Z,101655.47
2023-02-05T20:49:51.483Z,101666.34
2023-02-05T20:54:54.899Z,101677.63
2023-02-05T20:59:58.981Z,101679.25
2023-02-05T21:05:01.685Z,101668.03
2023-02-05T21:10:05.698Z,101669.06
2023-02-05T21:15:10.288Z,101679.75
2023-02-05T21:20:13.235Z,101693.88
2023-02-05T21:25:17.069Z,101710.94
2023-02-05T21:30:21.505Z,101723.53
2023-02-05T21:35:24.284Z,101742.81
2023-02-05T21:40:26.992Z,101739.44
2023-02-05T21:45:31.191Z,101752.16
2023-02-05T21:50:34.133Z,101764.38
2023-02-05T21:55:37.035Z,101796.22
2023-02-05T22:00:41.150Z,101807.59
2023-02-05T22:05:43.868Z,101829.31
2023-02-05T22:10:46.527Z,101866.44
2023-02-05T22:15:50.980Z,101883.13
2023-02-05T22:20:53.653Z,101893.78
2023-02-05T22:25:56.346Z,101906.50
2023-02-05T22:31:02.324Z,101920.00
2023-02-05T22:36:05.836Z,101937.97
2023-02-05T22:41:09.058Z,101950.38
2023-02-05T22:46:14.674Z,101977.34
2023-02-05T22:51:20.430Z,102000.03
2023-02-05T22:56:23.593Z,102036.84
2023-02-05T23:01:31.327Z,102062.84
2023-02-05T23:06:35.604Z,102068.94
2023-02-05T23:11:38.525Z,102094.75
2023-02-05T23:16:45.134Z,102107.28
2023-02-05T23:21:48.520Z,102118.78
2023-02-05T23:26:53.367Z,102126.50
2023-02-05T23:31:57.788Z,102132.75
2023-02-05T23:37:00.509Z,102140.13
2023-02-05T23:42:03.431Z,102152.25
2023-02-05T23:47:07.453Z,102171.09
2023-02-05T23:52:10.190Z,102178.56
2023-02-05T23:57:12.881Z,102175.00
